Time;durP1;ratioP1;P1;durP2;ratioP2;P2;SDS_P1;SDS_P2;PMS_P1;PMS_P2;Temp;Humidity;BMP_temperature;BMP_pressure;BME280_temperature;BME280_humidity;BME280_pressure;Samples;Min_cycle;Max_cycle;Signal;HPM_P1;HPM_P2
2023/03/14 00:01:11;;;;;;;16.13;4.88;;;6.70;99.90;;;;;;4958594;28;20134;-64
2023/03/14 00:03:38;;;;;;;31.13;5.97;;;6.70;99.90;;;;;;4959064;28;20054;-63
2023/03/14 00:06:06;;;;;;;15.63;5.43;;;6.60;99.90;;;;;;4959402;28;20061;-64
2023/03/14 00:08:34;;;;;;;18.77;6.53;;;6.60;99.90;;;;;;4948240;28;20216;-65
2023/03/14 00:11:06;;;;;;;24.05;5.60;;;6.60;99.90;;;;;;4952267;28;20058;-64
2023/03/14 00:13:32;;;;;;;14.52;5.88;;;6.70;99.90;;;;;;4959209;28;20058;-65
2023/03/14 00:16:04;;;;;;;15.20;3.83;;;6.70;99.90;;;;;;4953149;28;20051;-64
2023/03/14 00:18:31;;;;;;;15.00;4.55;;;6.70;99.90;;;;;;4953885;28;20090;-64
2023/03/14 00:21:00;;;;;;;14.18;5.13;;;6.70;99.90;;;;;;4954252;28;20058;-64
2023/03/14 00:23:28;;;;;;;21.10;5.90;;;6.70;99.90;;;;;;4953788;28;20054;-63
2023/03/14 00:26:02;;;;;;;13.65;5.25;;;6.60;99.90;;;;;;4952128;28;20059;-63
2023/03/14 00:28:29;;;;;;;13.80;4.75;;;6.70;99.90;;;;;;4952587;28;20051;-64
2023/03/14 00:30:56;;;;;;;20.90;5.18;;;6.70;99.90;;;;;;4949159;28;20039;-65
2023/03/14 00:33:23;;;;;;;15.32;6.18;;;6.60;99.90;;;;;;4955481;28;20549;-63
2023/03/14 00:35:59;;;;;;;24.42;5.78;;;6.60;99.90;;;;;;4957917;28;20055;-65
2023/03/14 00:38:29;;;;;;;16.70;5.15;;;6.60;99.90;;;;;;4952472;28;20469;-64
2023/03/14 00:40:57;;;;;;;15.90;6.60;;;6.70;99.90;;;;;;4957132;28;20047;-64
2023/03/14 00:43:25;;;;;;;10.27;3.95;;;6.60;99.90;;;;;;4956239;28;20054;-64
2023/03/14 00:45:53;;;;;;;20.80;6.93;;;6.60;99.90;;;;;;4971900;28;20058;-67
2023/03/14 00:48:20;;;;;;;19.52;5.07;;;6.60;99.90;;;;;;4947206;28;20047;-64
2023/03/14 00:50:47;;;;;;;25.25;4.70;;;6.70;99.90;;;;;;4956068;28;20062;-65
2023/03/14 00:53:15;;;;;;;20.73;5.70;;;6.80;99.90;;;;;;4954517;28;20129;-63
2023/03/14 00:55:43;;;;;;;19.50;5.45;;;6.90;99.90;;;;;;4957912;28;20051;-64
2023/03/14 00:58:12;;;;;;;21.77;6.20;;;6.90;99.90;;;;;;4982497;28;20166;-64
2023/03/14 01:00:40;;;;;;;24.50;7.18;;;6.80;99.90;;;;;;4986055;28;20157;-66
2023/03/14 01:03:08;;;;;;;16.50;5.57;;;6.90;99.90;;;;;;4956685;28;20049;-64
2023/03/14 01:05:35;;;;;;;23.70;5.68;;;6.90;99.90;;;;;;4952950;28;20145;-64
2023/03/14 01:08:03;;;;;;;18.83;4.80;;;6.90;99.90;;;;;;4948787;28;20790;-65
2023/03/14 01:10:30;;;;;;;25.67;6.45;;;6.90;99.90;;;;;;4952319;28;20081;-64
2023/03/14 01:12:57;;;;;;;24.77;6.03;;;6.90;99.90;;;;;;4952182;28;20062;-65
2023/03/14 01:15:24;;;;;;;18.25;5.07;;;6.90;99.90;;;;;;4954546;28;20059;-67
2023/03/14 01:17:51;;;;;;;31.90;7.20;;;6.90;99.90;;;;;;4948500;28;20047;-65
2023/03/14 01:20:18;;;;;;;21.23;5.00;;;7.00;99.90;;;;;;4954157;28;20051;-65
2023/03/14 01:22:45;;;;;;;23.90;6.10;;;7.00;99.90;;;;;;4954363;28;20139;-67
2023/03/14 01:25:14;;;;;;;22.83;5.95;;;7.00;99.90;;;;;;4952353;28;20078;-64
2023/03/14 01:27:41;;;;;;;16.50;5.50;;;7.00;99.90;;;;;;4954020;28;20074;-64
2023/03/14 01:30:10;;;;;;;31.27;5.43;;;7.10;99.90;;;;;;4956148;28;20050;-64
2023/03/14 01:32:38;;;;;;;26.58;6.75;;;7.10;99.90;;;;;;4951001;28;20059;-65
2023/03/14 01:35:05;;;;;;;23.40;4.32;;;7.20;99.90;;;;;;4984614;28;20114;-64
2023/03/14 01:37:32;;;;;;;29.58;5.65;;;7.20;99.90;;;;;;4949370;28;20400;-65
2023/03/14 01:39:59;;;;;;;18.88;5.88;;;7.30;99.90;;;;;;4949110;28;20053;-64
2023/03/14 01:42:26;;;;;;;20.05;5.13;;;7.30;99.90;;;;;;4950926;28;20062;-65
2023/03/14 01:44:55;;;;;;;23.92;6.57;;;7.30;99.90;;;;;;4954107;28;20047;-64
2023/03/14 01:47:22;;;;;;;21.30;5.32;;;7.30;99.90;;;;;;4949995;28;20078;-66
2023/03/14 01:49:55;;;;;;;29.10;6.63;;;7.30;99.90;;;;;;4952827;28;20051;-64
2023/03/14 01:52:28;;;;;;;20.10;5.53;;;7.20;99.90;;;;;;4954446;28;20783;-65
2023/03/14 01:55:01;;;;;;;28.08;7.50;;;7.10;99.90;;;;;;4985775;28;20105;-65
2023/03/14 01:57:35;;;;;;;19.85;6.38;;;7.10;99.90;;;;;;4955595;28;20183;-64
2023/03/14 02:00:14;;;;;;;16.92;5.20;;;7.00;99.90;;;;;;4967168;28;20050;-65
2023/03/14 02:02:45;;;;;;;;;;;7.00;99.90;;;;;;4951183;28;20051;-66
2023/03/14 02:05:15;;;;;;;;;;;7.00;99.90;;;;;;4986904;28;20321;-64
2023/03/14 02:07:51;;;;;;;22.42;6.38;;;7.00;99.90;;;;;;4981099;28;19939;-64
2023/03/14 02:10:33;;;;;;;18.33;5.82;;;7.00;99.90;;;;;;4948679;28;20054;-64
2023/03/14 02:13:04;;;;;;;24.05;5.05;;;7.00;99.90;;;;;;4969310;28;20137;-65
2023/03/14 02:15:39;;;;;;;23.30;6.05;;;7.00;99.90;;;;;;4986966;28;20170;-64
2023/03/14 02:18:13;;;;;;;20.60;6.57;;;7.00;99.90;;;;;;4952330;28;20085;-65
2023/03/14 02:21:12;;;;;;;37.35;6.82;;;7.00;99.90;;;;;;4947701;28;20593;-67
2023/03/14 02:24:06;;;;;;;22.65;5.60;;;7.00;99.90;;;;;;4947630;28;20055;-66
2023/03/14 02:26:47;;;;;;;34.13;7.22;;;7.00;99.90;;;;;;4968822;28;20078;-64
2023/03/14 02:29:14;;;;;;;25.85;5.80;;;6.90;99.90;;;;;;4966660;28;20137;-64
2023/03/14 02:31:41;;;;;;;24.88;6.28;;;6.80;99.90;;;;;;4956695;28;20048;-64
2023/03/14 02:34:08;;;;;;;24.65;6.20;;;6.80;99.90;;;;;;4956813;28;20614;-65
2023/03/14 02:36:36;;;;;;;25.60;5.22;;;6.80;99.90;;;;;;4956085;28;20074;-65
2023/03/14 02:39:16;;;;;;;20.27;4.82;;;6.80;99.90;;;;;;4956118;28;20472;-64
2023/03/14 02:41:45;;;;;;;24.75;5.20;;;6.70;99.90;;;;;;4985366;28;20059;-65
2023/03/14 02:44:12;;;;;;;26.38;5.68;;;6.70;99.90;;;;;;4947901;28;20051;-65
2023/03/14 02:46:39;;;;;;;22.15;5.15;;;6.70;99.90;;;;;;4951283;28;20307;-65
2023/03/14 02:49:10;;;;;;;18.73;6.68;;;6.70;99.90;;;;;;4955050;28;20055;-64
2023/03/14 02:51:37;;;;;;;;;;;6.70;99.90;;;;;;4954875;28;20493;-64
2023/03/14 02:54:05;;;;;;;31.80;7.05;;;6.80;99.90;;;;;;4946463;28;19930;-66
2023/03/14 02:56:32;;;;;;;30.75;5.80;;;6.80;99.90;;;;;;4949999;28;20053;-64
2023/03/14 02:59:05;;;;;;;30.15;7.28;;;6.80;99.90;;;;;;4947286;28;20058;-67
2023/03/14 03:01:48;;;;;;;25.40;5.82;;;6.90;99.90;;;;;;4955742;28;20062;-65
2023/03/14 03:04:15;;;;;;;29.23;7.63;;;6.90;99.90;;;;;;4952130;28;20057;-64
2023/03/14 03:06:45;;;;;;;30.88;6.45;;;6.90;99.90;;;;;;4962707;28;20066;-64
2023/03/14 03:09:13;;;;;;;24.17;6.20;;;6.80;99.90;;;;;;4950033;28;20042;-62
2023/03/14 03:11:39;;;;;;;14.35;4.95;;;6.90;99.90;;;;;;4953409;28;20110;-62
2023/03/14 03:14:08;;;;;;;22.15;5.22;;;6.90;99.90;;;;;;4951853;28;20544;-64
2023/03/14 03:16:35;;;;;;;34.15;6.55;;;6.90;99.90;;;;;;4950731;28;20047;-65
2023/03/14 03:19:02;;;;;;;23.85;5.60;;;6.90;99.90;;;;;;4946888;28;20055;-64
2023/03/14 03:21:29;;;;;;;24.45;5.43;;;6.90;99.90;;;;;;4946925;28;20043;-64
2023/03/14 03:23:56;;;;;;;25.55;6.30;;;6.90;99.90;;;;;;4953511;28;20051;-61
2023/03/14 03:26:23;;;;;;;26.35;6.75;;;6.80;99.90;;;;;;4950666;28;20045;-62
2023/03/14 03:28:51;;;;;;;20.08;5.72;;;6.80;99.90;;;;;;4983852;28;20082;-66
2023/03/14 03:31:18;;;;;;;24.02;5.05;;;6.80;99.90;;;;;;4947794;28;20050;-63
2023/03/14 03:33:46;;;;;;;18.02;6.80;;;6.80;99.90;;;;;;4975180;28;20052;-62
2023/03/14 03:36:13;;;;;;;27.48;8.18;;;6.80;99.90;;;;;;4980382;28;20720;-64
2023/03/14 03:38:40;;;;;;;26.25;5.35;;;6.80;99.90;;;;;;4944555;28;20049;-62
2023/03/14 03:41:08;;;;;;;25.95;6.63;;;6.80;99.90;;;;;;4969957;28;20146;-62
2023/03/14 03:43:35;;;;;;;24.33;4.72;;;6.80;99.90;;;;;;4951582;28;20724;-63
2023/03/14 03:46:05;;;;;;;25.98;4.95;;;6.80;99.90;;;;;;4949003;28;20101;-63
2023/03/14 03:48:34;;;;;;;25.38;6.15;;;6.80;99.90;;;;;;4949209;28;20827;-62
2023/03/14 03:51:04;;;;;;;28.88;6.68;;;6.80;99.90;;;;;;4977751;28;20059;-64
2023/03/14 03:53:31;;;;;;;25.02;6.68;;;6.80;99.90;;;;;;4980517;28;20481;-64
2023/03/14 03:56:04;;;;;;;24.83;5.57;;;6.80;99.90;;;;;;4951431;28;20047;-63
2023/03/14 03:58:33;;;;;;;30.38;6.38;;;6.80;99.90;;;;;;4951267;28;20051;-63
2023/03/14 04:01:00;;;;;;;18.40;5.70;;;6.80;99.90;;;;;;4949921;28;20446;-63
2023/03/14 04:03:27;;;;;;;29.02;7.57;;;6.80;99.90;;;;;;4949889;28;20053;-64
2023/03/14 04:06:04;;;;;;;23.38;6.13;;;6.80;99.90;;;;;;4948476;28;20066;-64
2023/03/14 04:08:33;;;;;;;17.60;8.10;;;6.80;99.90;;;;;;4975048;28;20434;-63
2023/03/14 04:11:01;;;;;;;26.30;7.72;;;6.80;99.90;;;;;;4981098;28;20077;-63
2023/03/14 04:13:46;;;;;;;23.52;6.85;;;6.80;99.90;;;;;;4948581;28;20778;-64
2023/03/14 04:16:19;;;;;;;20.88;7.05;;;6.80;99.90;;;;;;4980585;28;20556;-64
2023/03/14 04:18:46;;;;;;;16.85;5.30;;;6.70;99.90;;;;;;4950019;28;20474;-64
2023/03/14 04:21:14;;;;;;;19.75;6.60;;;6.70;99.90;;;;;;4949569;28;20054;-65
2023/03/14 04:23:48;;;;;;;28.15;7.00;;;6.70;99.90;;;;;;4946984;28;20060;-63
2023/03/14 04:26:16;;;;;;;18.83;5.32;;;6.70;99.90;;;;;;4952947;28;20055;-64
2023/03/14 04:28:44;;;;;;;21.38;7.18;;;6.60;99.90;;;;;;4955630;28;20054;-64
2023/03/14 04:31:16;;;;;;;24.00;7.60;;;6.60;99.90;;;;;;4985622;28;20091;-64
2023/03/14 04:33:43;;;;;;;22.67;7.47;;;6.70;99.90;;;;;;4955035;28;20055;-64
2023/03/14 04:36:13;;;;;;;27.55;7.70;;;6.70;99.90;;;;;;4956662;28;20059;-64
2023/03/14 04:38:41;;;;;;;18.90;6.43;;;6.70;99.90;;;;;;4950605;28;20057;-70
2023/03/14 04:41:09;;;;;;;21.90;5.85;;;6.70;99.90;;;;;;4957959;28;20055;-65
2023/03/14 04:43:36;;;;;;;26.60;6.60;;;6.80;99.90;;;;;;4953017;28;20481;-65
2023/03/14 04:46:06;;;;;;;25.17;5.60;;;6.80;99.90;;;;;;4955795;28;20059;-66
2023/03/14 04:48:34;;;;;;;24.85;6.30;;;6.80;99.90;;;;;;4985482;28;20070;-64
2023/03/14 04:51:01;;;;;;;23.00;6.53;;;6.80;99.90;;;;;;4957187;28;20050;-63
2023/03/14 04:53:31;;;;;;;32.30;8.25;;;6.80;99.90;;;;;;4953946;28;20058;-67
2023/03/14 04:56:00;;;;;;;26.13;5.20;;;6.90;99.90;;;;;;4960877;28;20476;-66
2023/03/14 04:58:34;;;;;;;25.00;5.68;;;6.90;99.90;;;;;;4956304;28;20061;-64
2023/03/14 05:01:03;;;;;;;23.83;6.55;;;6.90;99.90;;;;;;4958342;28;20055;-64
2023/03/14 05:03:50;;;;;;;33.85;6.90;;;6.90;99.90;;;;;;4950814;28;20053;-63
2023/03/14 05:06:26;;;;;;;24.92;7.57;;;6.90;99.90;;;;;;4952810;28;20069;-65
2023/03/14 05:09:19;;;;;;;22.48;6.35;;;6.90;99.90;;;;;;4954768;28;20050;-64
2023/03/14 05:11:49;;;;;;;31.73;5.97;;;6.90;99.90;;;;;;4950095;28;20146;-64
2023/03/14 05:14:50;;;;;;;19.10;4.88;;;6.80;99.90;;;;;;4956287;28;20051;-65
2023/03/14 05:17:49;;;;;;;22.60;5.88;;;6.80;99.90;;;;;;4946873;28;20051;-64
2023/03/14 05:20:56;;;;;;;25.85;6.80;;;6.90;99.90;;;;;;4940918;28;20134;-64
2023/03/14 05:23:46;;;;;;;27.90;7.10;;;6.90;99.90;;;;;;4952102;28;20409;-65
2023/03/14 05:26:25;;;;;;;28.25;5.55;;;6.90;99.90;;;;;;4955692;28;20110;-65
2023/03/14 05:29:12;;;;;;;16.13;5.93;;;7.00;99.90;;;;;;4958933;28;20062;-67
2023/03/14 05:31:51;;;;;;;26.48;6.78;;;7.00;99.90;;;;;;4951121;28;20047;-67
2023/03/14 05:34:29;;;;;;;22.55;7.53;;;7.00;99.90;;;;;;4981196;28;20086;-64
2023/03/14 05:37:13;;;;;;;19.65;6.00;;;7.00;99.90;;;;;;4954878;28;20077;-64
2023/03/14 05:40:09;;;;;;;13.85;6.03;;;7.00;99.90;;;;;;4944267;28;20044;-64
2023/03/14 05:42:52;;;;;;;33.65;5.95;;;6.90;99.90;;;;;;4953095;28;20111;-66
2023/03/14 05:45:39;;;;;;;20.10;8.43;;;7.00;99.90;;;;;;4957180;28;20054;-63
2023/03/14 05:48:24;;;;;;;26.83;7.40;;;7.00;99.90;;;;;;4956234;28;20050;-64
2023/03/14 05:51:07;;;;;;;34.75;5.80;;;7.00;99.90;;;;;;4961378;28;20055;-63
2023/03/14 05:53:46;;;;;;;33.55;6.07;;;6.90;99.90;;;;;;4953258;28;20138;-64
2023/03/14 05:56:32;;;;;;;25.40;6.28;;;6.90;99.90;;;;;;4953832;28;20055;-66
2023/03/14 05:59:25;;;;;;;25.38;6.47;;;6.90;99.90;;;;;;4954810;28;20537;-65
2023/03/14 06:02:11;;;;;;;23.65;6.72;;;6.90;99.90;;;;;;4955871;28;20893;-64
2023/03/14 06:04:49;;;;;;;18.00;5.35;;;6.90;99.90;;;;;;4957549;28;20081;-64
2023/03/14 06:07:16;;;;;;;19.92;4.93;;;7.00;99.90;;;;;;4956880;28;20051;-66
2023/03/14 06:09:43;;;;;;;23.35;6.40;;;7.00;99.90;;;;;;4953597;28;20134;-63
2023/03/14 06:12:10;;;;;;;20.48;4.80;;;7.10;99.90;;;;;;4953345;28;20043;-64
2023/03/14 06:14:41;;;;;;;23.98;4.18;;;7.00;99.90;;;;;;4947462;28;20070;-65
2023/03/14 06:17:08;;;;;;;18.80;5.00;;;7.10;99.90;;;;;;4958922;28;20472;-66
2023/03/14 06:19:42;;;;;;;23.15;7.15;;;7.10;99.90;;;;;;4953882;28;20121;-65
2023/03/14 06:22:12;;;;;;;33.13;5.63;;;7.20;99.90;;;;;;4959370;28;20604;-63
2023/03/14 06:24:40;;;;;;;22.60;4.85;;;7.20;99.90;;;;;;4959453;28;20788;-65
2023/03/14 06:27:07;;;;;;;42.20;8.20;;;7.30;99.90;;;;;;4956440;28;20058;-64
2023/03/14 06:29:34;;;;;;;25.88;6.07;;;7.30;99.90;;;;;;4953491;28;20126;-63
2023/03/14 06:32:02;;;;;;;21.83;5.07;;;7.30;99.90;;;;;;4959019;28;20133;-64
2023/03/14 06:34:28;;;;;;;19.38;6.00;;;7.30;99.90;;;;;;4954802;28;20070;-64
2023/03/14 06:36:55;;;;;;;28.05;5.70;;;7.40;99.90;;;;;;4955241;28;20521;-64
2023/03/14 06:39:22;;;;;;;25.30;5.75;;;7.50;99.90;;;;;;4955993;28;20053;-64
2023/03/14 06:41:59;;;;;;;23.95;5.10;;;7.50;99.90;;;;;;4955235;28;20661;-64
2023/03/14 06:44:26;;;;;;;17.70;4.88;;;7.50;99.90;;;;;;4952150;28;20086;-65
2023/03/14 06:46:53;;;;;;;20.90;7.25;;;7.50;99.90;;;;;;4988478;28;20081;-66
2023/03/14 06:49:20;;;;;;;30.98;6.63;;;7.50;99.90;;;;;;4957325;28;20074;-65
2023/03/14 06:51:51;;;;;;;;;;;7.50;99.90;;;;;;4985121;28;20081;-64
2023/03/14 06:54:17;;;;;;;22.17;4.35;;;7.60;99.90;;;;;;4953016;28;19934;-65
2023/03/14 06:56:45;;;;;;;32.13;6.85;;;7.70;99.90;;;;;;4953301;28;20141;-65
2023/03/14 06:59:13;;;;;;;20.63;5.07;;;7.80;99.90;;;;;;4949358;28;20117;-64
2023/03/14 07:01:41;;;;;;;27.23;6.30;;;7.90;99.90;;;;;;4953573;28;20556;-67
2023/03/14 07:04:10;;;;;;;16.58;4.00;;;8.10;99.90;;;;;;4951314;28;20049;-66
2023/03/14 07:06:44;;;;;;;29.92;6.93;;;8.20;99.90;;;;;;4984086;28;20055;-64
2023/03/14 07:09:12;;;;;;;17.23;5.22;;;8.30;99.90;;;;;;4948166;28;20047;-65
2023/03/14 07:11:43;;;;;;;24.67;6.40;;;8.40;99.90;;;;;;4952001;28;20352;-64
2023/03/14 07:14:11;;;;;;;20.77;5.75;;;8.40;99.90;;;;;;4958309;28;20378;-64
2023/03/14 07:16:38;;;;;;;27.00;6.60;;;8.50;99.90;;;;;;4983197;28;20518;-65
2023/03/14 07:19:06;;;;;;;20.67;6.60;;;8.50;99.90;;;;;;4981906;28;20113;-67
2023/03/14 07:21:34;;;;;;;18.98;4.65;;;8.60;99.90;;;;;;4952558;28;20436;-67
2023/03/14 07:24:05;;;;;;;18.17;5.55;;;8.60;99.90;;;;;;4978303;28;20081;-67
2023/03/14 07:26:32;;;;;;;17.85;4.25;;;8.70;99.90;;;;;;4948866;28;20448;-64
2023/03/14 07:29:00;;;;;;;25.13;5.43;;;8.80;99.90;;;;;;4955310;28;20075;-68
2023/03/14 07:31:26;;;;;;;20.40;4.93;;;8.80;99.90;;;;;;4954240;28;20138;-66
2023/03/14 07:33:53;;;;;;;20.55;5.63;;;8.80;99.90;;;;;;4963642;28;20061;-65
2023/03/14 07:36:22;;;;;;;25.60;5.20;;;8.90;99.90;;;;;;4957526;28;20314;-68
2023/03/14 07:38:49;;;;;;;26.73;6.43;;;9.00;99.90;;;;;;4949690;28;20050;-64
2023/03/14 07:41:20;;;;;;;20.35;5.10;;;9.10;99.90;;;;;;4951056;28;20169;-65
2023/03/14 07:44:05;;;;;;;13.27;4.90;;;9.20;99.90;;;;;;4949073;28;20090;-65
2023/03/14 07:46:32;;;;;;;24.90;7.50;;;9.30;99.90;;;;;;4957565;28;20492;-64
2023/03/14 07:48:59;;;;;;;20.92;6.55;;;9.40;99.90;;;;;;4950832;28;20509;-65
2023/03/14 07:51:26;;;;;;;14.65;4.47;;;9.50;99.90;;;;;;4951958;28;20050;-64
2023/03/14 07:53:53;;;;;;;22.55;4.97;;;9.50;99.90;;;;;;4954542;28;20046;-64
2023/03/14 07:56:20;;;;;;;28.75;5.45;;;9.50;99.90;;;;;;4949221;28;20050;-65
2023/03/14 07:58:46;;;;;;;26.83;5.07;;;9.40;99.90;;;;;;4949005;28;20055;-64
2023/03/14 08:01:14;;;;;;;21.23;4.88;;;9.30;99.90;;;;;;4953732;28;21202;-64
2023/03/14 08:03:40;;;;;;;23.83;7.40;;;9.20;99.90;;;;;;4949936;28;20070;-63
2023/03/14 08:06:07;;;;;;;21.83;5.80;;;9.20;99.90;;;;;;4952794;28;20078;-64
2023/03/14 08:08:34;;;;;;;25.67;5.75;;;9.20;99.90;;;;;;4950304;28;20383;-64
2023/03/14 08:11:05;;;;;;;20.23;5.90;;;9.20;99.90;;;;;;4955258;28;20057;-63
2023/03/14 08:13:32;;;;;;;25.60;7.00;;;9.30;99.90;;;;;;4958284;28;20047;-64
2023/03/14 08:15:59;;;;;;;19.38;5.75;;;9.40;99.90;;;;;;4953944;28;20054;-65
2023/03/14 08:18:26;;;;;;;15.18;4.45;;;9.40;99.90;;;;;;4956714;28;20047;-64
2023/03/14 08:20:53;;;;;;;20.15;5.90;;;9.40;99.90;;;;;;4952557;28;20071;-65
2023/03/14 08:23:20;;;;;;;15.25;5.97;;;9.50;99.90;;;;;;4959518;28;20501;-64
2023/03/14 08:25:50;;;;;;;12.65;4.35;;;9.50;99.90;;;;;;4955119;28;20138;-63
2023/03/14 08:28:17;;;;;;;15.90;4.63;;;9.40;99.90;;;;;;4959900;28;20089;-64
2023/03/14 08:30:44;;;;;;;18.05;4.50;;;9.20;99.90;;;;;;4956556;28;20497;-64
2023/03/14 08:33:13;;;;;;;23.15;5.45;;;9.10;99.90;;;;;;4953656;28;20046;-67
2023/03/14 08:35:40;;;;;;;9.93;3.85;;;9.10;99.90;;;;;;4950075;28;20043;-65
2023/03/14 08:38:07;;;;;;;15.07;4.75;;;9.30;99.90;;;;;;4957175;28;20050;-66
2023/03/14 08:40:34;;;;;;;17.27;4.60;;;9.30;99.90;;;;;;4953446;28;21932;-68
2023/03/14 08:43:01;;;;;;;15.13;4.20;;;9.20;99.90;;;;;;4955187;28;20065;-64
2023/03/14 08:45:27;;;;;;;16.92;4.78;;;9.20;99.90;;;;;;4953847;28;20070;-65
2023/03/14 08:47:54;;;;;;;12.18;3.85;;;9.00;99.90;;;;;;4952700;28;20079;-66
2023/03/14 08:50:23;;;;;;;18.65;4.15;;;9.00;99.90;;;;;;4951190;28;20051;-64
2023/03/14 08:52:50;;;;;;;13.27;3.97;;;8.90;99.90;;;;;;4955374;28;20143;-64
2023/03/14 08:55:17;;;;;;;14.07;3.95;;;9.00;99.90;;;;;;4953393;28;20051;-66
2023/03/14 08:57:43;;;;;;;15.57;4.55;;;9.00;99.90;;;;;;4952800;28;20122;-66
2023/03/14 09:00:14;;;;;;;16.25;4.15;;;9.00;99.90;;;;;;4955435;28;20044;-64
2023/03/14 09:02:44;;;;;;;;;;;9.10;99.90;;;;;;4954456;28;20059;-65
2023/03/14 09:05:11;;;;;;;10.05;3.95;;;9.40;99.90;;;;;;4952635;28;19923;-64
2023/03/14 09:07:39;;;;;;;16.60;4.55;;;9.60;99.90;;;;;;4957614;28;20065;-64
2023/03/14 09:10:07;;;;;;;17.85;4.72;;;9.60;99.90;;;;;;4954002;28;20055;-64
2023/03/14 09:12:35;;;;;;;19.15;5.45;;;9.80;99.90;;;;;;4951122;28;20062;-65
2023/03/14 09:15:02;;;;;;;19.52;4.97;;;9.80;99.90;;;;;;4949641;28;20151;-63
2023/03/14 09:17:29;;;;;;;13.73;4.60;;;9.90;99.90;;;;;;4956538;28;20055;-66
2023/03/14 09:19:55;;;;;;;20.13;5.75;;;9.90;99.90;;;;;;4958834;28;20750;-64
2023/03/14 09:22:26;;;;;;;12.60;4.85;;;9.80;99.90;;;;;;4952061;28;20061;-64
2023/03/14 09:24:52;;;;;;;15.18;4.82;;;9.80;99.90;;;;;;4950750;28;20074;-64
2023/03/14 09:27:19;;;;;;;18.85;6.70;;;9.60;99.90;;;;;;4957752;28;20047;-67
2023/03/14 09:29:46;;;;;;;11.85;5.45;;;9.60;99.90;;;;;;4952122;28;20057;-66
2023/03/14 09:32:13;;;;;;;13.80;6.10;;;9.60;99.90;;;;;;4953199;28;20070;-64
2023/03/14 09:34:40;;;;;;;17.42;4.90;;;9.60;99.90;;;;;;4955188;28;20046;-67
2023/03/14 09:37:07;;;;;;;14.88;5.18;;;9.40;99.90;;;;;;4950670;28;20051;-64
2023/03/14 09:39:34;;;;;;;15.30;6.85;;;9.30;99.90;;;;;;4953284;28;20046;-65
2023/03/14 09:42:04;;;;;;;18.73;5.75;;;9.40;99.90;;;;;;4954813;28;20059;-64
2023/03/14 09:44:52;;;;;;;16.83;5.05;;;9.50;99.90;;;;;;4949838;28;20055;-68
2023/03/14 09:47:20;;;;;;;15.25;5.43;;;9.50;99.90;;;;;;4953631;28;20110;-67
2023/03/14 09:49:47;;;;;;;19.27;4.95;;;9.50;99.90;;;;;;4956213;28;20147;-65
2023/03/14 09:52:35;;;;;;;11.35;5.18;;;9.40;99.90;;;;;;4952971;28;20074;-66
2023/03/14 09:55:05;;;;;;;14.48;5.15;;;9.30;99.90;;;;;;4957370;28;20051;-65
2023/03/14 09:57:34;;;;;;;9.68;4.05;;;9.30;99.90;;;;;;4955894;28;20051;-65
2023/03/14 10:00:13;;;;;;;15.90;4.93;;;9.20;99.90;;;;;;4949158;28;20058;-65
2023/03/14 10:02:45;;;;;;;11.00;3.33;;;9.20;99.90;;;;;;4951511;28;20069;-65
2023/03/14 10:05:18;;;;;;;13.65;4.35;;;9.10;99.90;;;;;;4956090;28;20081;-67
2023/03/14 10:07:45;;;;;;;12.00;4.43;;;9.10;99.90;;;;;;4958495;28;20051;-64
2023/03/14 10:10:24;;;;;;;12.30;4.38;;;9.10;99.90;;;;;;4949577;28;20057;-63
2023/03/14 10:13:13;;;;;;;16.50;4.40;;;8.90;99.90;;;;;;4949703;28;20055;-65
2023/03/14 10:15:40;;;;;;;10.48;3.80;;;8.90;99.90;;;;;;4950215;28;20462;-66
2023/03/14 10:18:14;;;;;;;7.97;5.15;;;8.90;99.90;;;;;;4953983;28;20192;-63
2023/03/14 10:20:44;;;;;;;10.45;4.70;;;8.90;99.90;;;;;;4950294;28;20098;-66
2023/03/14 10:23:11;;;;;;;19.73;6.53;;;9.00;99.90;;;;;;4955555;28;20043;-64
2023/03/14 10:25:40;;;;;;;13.57;3.38;;;9.00;99.90;;;;;;4956590;28;20840;-64
2023/03/14 10:28:27;;;;;;;14.48;4.78;;;9.10;99.90;;;;;;4958106;28;20062;-64
2023/03/14 10:30:56;;;;;;;12.07;3.97;;;9.10;99.90;;;;;;4949289;28;20098;-64
2023/03/14 10:33:25;;;;;;;9.80;3.10;;;9.20;99.90;;;;;;4950630;28;20138;-67
2023/03/14 10:35:57;;;;;;;14.20;5.05;;;9.30;99.90;;;;;;4952368;28;20045;-65
2023/03/14 10:38:28;;;;;;;9.90;3.40;;;9.30;99.90;;;;;;4946417;28;20066;-67
2023/03/14 10:40:57;;;;;;;12.63;4.93;;;9.40;99.90;;;;;;4950434;28;20133;-64
2023/03/14 10:43:26;;;;;;;18.00;5.28;;;9.40;99.90;;;;;;4954550;28;20496;-63
2023/03/14 10:46:09;;;;;;;14.63;3.73;;;9.30;99.90;;;;;;4952398;28;20044;-63
2023/03/14 10:48:56;;;;;;;12.40;5.78;;;9.10;99.90;;;;;;4952461;28;20047;-62
2023/03/14 10:51:30;;;;;;;18.08;4.85;;;9.00;99.90;;;;;;4951968;28;20151;-64
2023/03/14 10:54:03;;;;;;;13.55;6.00;;;8.80;99.90;;;;;;4956157;28;20057;-65
2023/03/14 10:56:35;;;;;;;16.45;5.95;;;8.80;99.90;;;;;;4947172;28;20141;-64
2023/03/14 10:59:06;;;;;;;17.27;5.53;;;8.80;99.90;;;;;;4954342;28;20047;-64
2023/03/14 11:01:58;;;;;;;13.85;4.65;;;8.80;99.90;;;;;;4953977;28;20098;-65
2023/03/14 11:04:35;;;;;;;8.52;4.03;;;8.80;99.90;;;;;;4950226;28;20105;-64
2023/03/14 11:07:06;;;;;;;15.55;6.28;;;8.90;99.90;;;;;;4948523;28;20415;-64
2023/03/14 11:09:46;;;;;;;;;;;8.90;99.90;;;;;;4958603;28;20047;-65
2023/03/14 11:12:21;;;;;;;12.98;4.18;;;8.80;99.90;;;;;;4951045;28;19933;-65
2023/03/14 11:14:58;;;;;;;13.48;4.72;;;8.80;99.90;;;;;;4979200;28;20053;-65
2023/03/14 11:17:45;;;;;;;14.30;3.85;;;8.90;99.90;;;;;;4951552;28;20137;-62
2023/03/14 11:20:30;;;;;;;8.35;3.78;;;9.00;99.90;;;;;;4950367;28;20051;-65
2023/03/14 11:23:13;;;;;;;8.20;4.50;;;8.90;99.90;;;;;;4949400;28;20062;-65
2023/03/14 11:25:49;;;;;;;15.43;4.80;;;8.90;99.90;;;;;;4952865;28;20083;-66
2023/03/14 11:28:23;;;;;;;11.68;4.70;;;8.90;99.90;;;;;;4952452;28;20051;-69
2023/03/14 11:30:53;;;;;;;8.93;4.35;;;8.80;99.90;;;;;;4952926;28;20069;-65
2023/03/14 11:33:38;;;;;;;13.52;5.95;;;8.90;99.90;;;;;;4950656;28;20055;-65
2023/03/14 11:36:11;;;;;;;10.80;4.03;;;8.90;99.90;;;;;;4950476;28;20154;-67
2023/03/14 11:38:54;;;;;;;14.48;4.40;;;8.90;99.90;;;;;;4949139;28;20732;-65
2023/03/14 11:41:38;;;;;;;10.88;4.82;;;8.80;99.90;;;;;;4955806;28;20137;-64
2023/03/14 11:44:16;;;;;;;15.02;4.00;;;8.70;99.90;;;;;;4956836;28;20142;-67
2023/03/14 11:47:22;;;;;;;12.95;5.20;;;8.70;99.90;;;;;;4950269;28;20551;-66
2023/03/14 11:50:01;;;;;;;10.80;4.68;;;8.60;99.90;;;;;;4891271;28;20047;-65
2023/03/14 11:52:39;;;;;;;14.85;4.45;;;8.50;99.90;;;;;;4925613;28;20094;-67
2023/03/14 11:55:35;;;;;;;14.75;5.22;;;8.40;99.90;;;;;;4936267;28;20134;-67
2023/03/14 11:58:20;;;;;;;16.38;5.40;;;8.20;99.90;;;;;;4935106;28;20169;-65
2023/03/14 12:00:50;;;;;;;13.80;5.53;;;8.20;99.90;;;;;;4952127;28;20077;-64
2023/03/14 12:03:25;;;;;;;12.63;5.10;;;8.10;99.90;;;;;;4952275;28;20051;-64
2023/03/14 12:06:04;;;;;;;21.23;6.75;;;8.00;99.90;;;;;;4953488;28;20437;-65
2023/03/14 12:08:31;;;;;;;14.32;5.53;;;8.00;99.90;;;;;;4953113;28;20051;-67
2023/03/14 12:11:33;;;;;;;14.77;5.10;;;7.90;99.90;;;;;;4948996;28;20059;-64
2023/03/14 12:14:00;;;;;;;15.07;6.20;;;7.90;99.90;;;;;;4949926;28;20411;-68
2023/03/14 12:16:34;;;;;;;13.13;5.18;;;7.90;99.90;;;;;;4949877;28;20047;-70
2023/03/14 12:19:14;;;;;;;13.65;5.25;;;7.80;99.90;;;;;;4953384;28;20054;-64
2023/03/14 12:21:57;;;;;;;14.82;5.03;;;7.80;99.90;;;;;;4949010;28;20047;-64
2023/03/14 12:24:33;;;;;;;11.50;6.90;;;7.80;99.90;;;;;;4953940;28;20074;-65
2023/03/14 12:27:02;;;;;;;7.38;5.63;;;7.80;99.90;;;;;;4951404;28;20046;-66
2023/03/14 12:29:30;;;;;;;14.27;6.97;;;7.70;99.90;;;;;;4955425;28;20102;-67
2023/03/14 12:32:00;;;;;;;11.40;7.03;;;7.70;99.90;;;;;;4949618;28;20055;-70
2023/03/14 12:34:28;;;;;;;10.65;6.13;;;7.60;99.90;;;;;;4948824;28;20512;-65
2023/03/14 12:37:22;;;;;;;9.63;6.07;;;7.70;99.90;;;;;;4949606;28;20125;-65
2023/03/14 12:40:09;;;;;;;15.85;6.03;;;7.60;99.90;;;;;;4951903;28;20405;-64
2023/03/14 12:42:58;;;;;;;12.57;7.57;;;7.50;99.90;;;;;;4944645;28;20043;-64
2023/03/14 12:45:26;;;;;;;10.40;6.78;;;7.50;99.90;;;;;;4948099;28;20058;-68
2023/03/14 12:48:13;;;;;;;13.15;6.93;;;7.50;99.90;;;;;;4957218;28;20050;-65
2023/03/14 12:50:43;;;;;;;8.60;7.65;;;7.40;99.90;;;;;;4958713;28;20138;-65
2023/03/14 12:53:23;;;;;;;16.90;7.35;;;7.40;99.90;;;;;;4955958;28;20503;-67
2023/03/14 12:55:58;;;;;;;14.18;7.88;;;7.30;99.90;;;;;;4954380;28;20485;-65
2023/03/14 12:59:23;;;;;;;15.00;8.40;;;7.30;99.90;;;;;;4951444;28;20047;-64
2023/03/14 13:02:15;;;;;;;24.52;7.38;;;7.30;99.90;;;;;;4942294;28;20420;-65
2023/03/14 13:04:42;;;;;;;14.77;8.57;;;7.30;99.90;;;;;;4952629;28;20121;-65
2023/03/14 13:07:32;;;;;;;15.00;10.70;;;7.30;99.90;;;;;;4952542;28;20071;-66
2023/03/14 13:10:03;;;;;;;13.38;9.80;;;7.40;99.90;;;;;;4951395;28;20075;-66
2023/03/14 13:12:43;;;;;;;16.50;7.82;;;7.50;99.90;;;;;;4952768;28;20494;-64
2023/03/14 13:15:33;;;;;;;23.38;8.30;;;7.50;99.90;;;;;;4953531;28;20580;-68